Time;durP1;ratioP1;P1;durP2;ratioP2;P2;SDS_P1;SDS_P2;PMS_P1;PMS_P2;Temp;Humidity;BMP_temperature;BMP_pressure;BME280_temperature;BME280_humidity;BME280_pressure;Samples;Min_cycle;Max_cycle;Signal;HPM_P1;HPM_P2
2023/06/11 00:01:29;;;;;;;6.03;2.42;;;18.70;50.00;;;;;;5005533;28;20029;-71
2023/06/11 00:03:56;;;;;;;5.45;2.10;;;18.70;50.50;;;;;;5007904;28;20322;-69
2023/06/11 00:06:23;;;;;;;11.45;2.40;;;18.70;50.70;;;;;;5006928;28;20374;-68
2023/06/11 00:08:51;;;;;;;4.95;2.28;;;18.60;51.00;;;;;;4995767;28;20430;-68
2023/06/11 00:11:16;;;;;;;6.00;2.05;;;18.60;50.70;;;;;;5006012;28;20112;-69
2023/06/11 00:13:42;;;;;;;7.10;1.92;;;18.50;51.10;;;;;;5007684;28;20050;-68
2023/06/11 00:16:08;;;;;;;6.53;1.88;;;18.50;52.00;;;;;;5012309;28;20389;-68
2023/06/11 00:18:33;;;;;;;6.38;2.20;;;18.40;51.80;;;;;;5005699;28;20045;-68
2023/06/11 00:20:59;;;;;;;6.00;2.28;;;18.30;51.90;;;;;;5009917;28;20148;-69
2023/06/11 00:23:25;;;;;;;3.92;1.77;;;18.20;52.10;;;;;;5002818;28;20431;-69
2023/06/11 00:25:52;;;;;;;6.72;1.98;;;18.10;52.60;;;;;;5003993;28;20034;-69
2023/06/11 00:28:18;;;;;;;7.35;1.90;;;18.00;52.80;;;;;;5006520;28;20170;-69
2023/06/11 00:30:43;;;;;;;8.50;1.80;;;18.00;53.30;;;;;;5013380;28;20118;-69
2023/06/11 00:33:09;;;;;;;5.40;1.80;;;18.00;53.20;;;;;;5008284;28;20358;-68
2023/06/11 00:35:36;;;;;;;5.53;2.08;;;17.80;53.60;;;;;;5005085;28;20094;-68
2023/06/11 00:38:02;;;;;;;7.05;1.83;;;17.70;53.80;;;;;;5004200;28;20163;-68
2023/06/11 00:40:27;;;;;;;6.10;2.17;;;17.60;53.80;;;;;;5003134;28;20052;-69
2023/06/11 00:42:54;;;;;;;4.30;1.77;;;17.50;53.90;;;;;;5006436;28;20037;-69
2023/06/11 00:45:22;;;;;;;7.10;1.75;;;17.40;55.10;;;;;;5003514;28;20034;-68
2023/06/11 00:47:48;;;;;;;6.82;1.92;;;17.30;54.80;;;;;;5012331;28;20357;-69
2023/06/11 00:50:15;;;;;;;5.18;1.88;;;17.30;55.20;;;;;;5004930;28;20038;-70
2023/06/11 00:52:41;;;;;;;5.15;1.90;;;17.10;55.40;;;;;;5004166;28;20026;-68
2023/06/11 00:55:07;;;;;;;6.15;2.13;;;17.10;55.90;;;;;;5008611;28;20018;-69
2023/06/11 00:57:35;;;;;;;5.18;1.70;;;17.00;55.90;;;;;;5002968;28;20081;-69
2023/06/11 01:00:01;;;;;;;7.45;2.03;;;16.90;56.30;;;;;;5010015;28;20087;-69
2023/06/11 01:02:36;;;;;;;3.42;1.60;;;16.90;56.30;;;;;;5009666;28;20030;-68
2023/06/11 01:05:04;;;;;;;3.47;1.90;;;16.80;57.00;;;;;;5008392;28;20018;-68
2023/06/11 01:07:35;;;;;;;5.57;1.52;;;16.70;57.30;;;;;;5004332;28;20108;-68
2023/06/11 01:10:02;;;;;;;11.90;1.92;;;16.60;57.90;;;;;;5020242;28;20365;-69
2023/06/11 01:12:28;;;;;;;6.72;1.83;;;16.50;57.90;;;;;;5009490;28;20041;-68
2023/06/11 01:14:53;;;;;;;7.20;1.70;;;16.50;58.10;;;;;;5008461;28;20385;-68
2023/06/11 01:17:35;;;;;;;5.97;2.00;;;16.40;58.20;;;;;;5008131;28;20036;-68
2023/06/11 01:20:11;;;;;;;8.25;1.77;;;16.40;58.90;;;;;;5012322;28;20029;-68
2023/06/11 01:23:09;;;;;;;4.80;1.73;;;16.30;58.80;;;;;;5009374;28;20299;-69
2023/06/11 01:26:01;;;;;;;4.97;1.73;;;16.30;59.50;;;;;;5006960;28;20033;-68
2023/06/11 01:28:30;;;;;;;3.78;1.80;;;16.20;59.20;;;;;;5011808;28;20053;-68
2023/06/11 01:30:58;;;;;;;8.68;1.90;;;16.20;60.30;;;;;;5003131;28;20446;-68
2023/06/11 01:33:27;;;;;;;5.93;2.03;;;16.10;60.10;;;;;;5008189;28;20398;-69
2023/06/11 01:35:58;;;;;;;13.13;1.80;;;16.10;60.10;;;;;;5004301;28;20488;-68
2023/06/11 01:38:25;;;;;;;5.50;1.65;;;16.00;60.10;;;;;;5000468;28;20164;-68
2023/06/11 01:40:52;;;;;;;4.72;1.60;;;16.00;60.40;;;;;;5008187;28;20026;-68
2023/06/11 01:43:17;;;;;;;6.25;2.15;;;16.00;60.40;;;;;;5009424;28;20365;-68
2023/06/11 01:45:43;;;;;;;8.80;2.20;;;16.00;60.60;;;;;;5011813;28;20084;-68
2023/06/11 01:48:09;;;;;;;3.42;1.67;;;15.90;61.00;;;;;;5009131;28;20081;-69
2023/06/11 01:50:34;;;;;;;7.35;1.70;;;15.80;61.00;;;;;;5008391;28;20041;-68
2023/06/11 01:53:00;;;;;;;4.20;1.65;;;15.80;61.50;;;;;;5005823;28;20362;-68
2023/06/11 01:55:25;;;;;;;5.65;1.63;;;15.80;61.70;;;;;;5013145;28;20130;-70
2023/06/11 01:57:51;;;;;;;4.47;1.77;;;15.80;61.90;;;;;;5005752;28;20115;-69
2023/06/11 02:00:18;;;;;;;3.53;1.70;;;15.70;62.50;;;;;;5010806;28;20045;-69
2023/06/11 02:02:46;;;;;;;5.45;2.08;;;15.60;62.60;;;;;;5012573;28;20013;-69
2023/06/11 02:05:12;;;;;;;6.28;2.08;;;15.50;62.60;;;;;;5007943;28;20080;-69
2023/06/11 02:07:37;;;;;;;7.18;1.88;;;15.50;63.10;;;;;;5004051;28;20034;-68
2023/06/11 02:10:03;;;;;;;4.30;2.10;;;15.50;63.30;;;;;;5001413;28;20454;-68
2023/06/11 02:12:29;;;;;;;5.57;2.00;;;15.50;63.70;;;;;;5012896;28;20042;-68
2023/06/11 02:14:54;;;;;;;6.55;1.90;;;15.50;63.60;;;;;;5008949;28;20099;-68
2023/06/11 02:17:20;;;;;;;5.15;1.88;;;15.40;63.60;;;;;;5013736;28;20124;-69
2023/06/11 02:19:46;;;;;;;5.88;1.88;;;15.40;63.70;;;;;;5010100;28;20315;-70
2023/06/11 02:22:12;;;;;;;4.50;1.77;;;15.40;64.40;;;;;;5006423;28;20425;-68
2023/06/11 02:24:37;;;;;;;5.40;1.92;;;15.40;64.20;;;;;;5007283;28;20049;-70
2023/06/11 02:27:03;;;;;;;5.07;2.38;;;15.40;64.40;;;;;;5006513;28;20028;-68
2023/06/11 02:29:28;;;;;;;5.80;1.80;;;15.30;64.40;;;;;;5008411;28;20069;-69
2023/06/11 02:31:54;;;;;;;8.88;2.40;;;15.30;64.70;;;;;;5003373;28;20148;-68
2023/06/11 02:34:19;;;;;;;5.00;1.88;;;15.40;64.60;;;;;;5000189;28;20461;-68
2023/06/11 02:36:45;;;;;;;4.95;1.70;;;15.30;64.60;;;;;;5006331;28;20108;-68
2023/06/11 02:39:10;;;;;;;9.70;2.15;;;15.30;64.90;;;;;;5003002;28;20321;-68
2023/06/11 02:41:36;;;;;;;7.32;1.83;;;15.30;65.20;;;;;;5001609;28;20080;-68
2023/06/11 02:44:01;;;;;;;4.10;1.83;;;15.30;65.70;;;;;;5005508;28;20042;-68
2023/06/11 02:46:27;;;;;;;4.90;1.95;;;15.20;65.50;;;;;;5009753;28;20037;-68
2023/06/11 02:48:52;;;;;;;6.20;2.00;;;15.30;65.80;;;;;;5004129;28;20105;-68
2023/06/11 02:51:18;;;;;;;5.30;1.80;;;15.30;65.60;;;;;;5005489;28;20065;-69
2023/06/11 02:53:44;;;;;;;5.50;1.67;;;15.20;66.10;;;;;;5005240;28;20321;-67
2023/06/11 02:56:09;;;;;;;6.50;2.25;;;15.10;65.90;;;;;;5006781;28;20113;-67
2023/06/11 02:58:35;;;;;;;6.93;1.77;;;15.20;66.20;;;;;;5000089;28;20060;-67
2023/06/11 03:01:00;;;;;;;3.85;1.67;;;15.10;66.10;;;;;;5002783;28;20040;-68
2023/06/11 03:03:26;;;;;;;6.43;2.10;;;15.10;66.40;;;;;;5004565;28;20476;-68
2023/06/11 03:05:51;;;;;;;4.78;1.77;;;15.10;66.50;;;;;;5002394;28;20042;-67
2023/06/11 03:08:17;;;;;;;5.45;2.10;;;15.10;66.70;;;;;;4997818;28;20109;-68
2023/06/11 03:10:42;;;;;;;5.85;1.98;;;15.00;66.90;;;;;;5007412;28;20113;-67
2023/06/11 03:13:08;;;;;;;8.73;2.13;;;15.00;67.20;;;;;;5005427;28;20165;-67
2023/06/11 03:15:33;;;;;;;5.32;2.08;;;15.00;67.20;;;;;;5003148;28;20025;-68
2023/06/11 03:17:59;;;;;;;10.52;1.70;;;15.00;67.10;;;;;;4993647;28;20108;-69
2023/06/11 03:20:24;;;;;;;8.23;1.90;;;15.10;67.20;;;;;;5016610;28;20121;-68
2023/06/11 03:22:50;;;;;;;7.60;1.90;;;15.00;67.30;;;;;;5004386;28;20326;-68
2023/06/11 03:25:15;;;;;;;8.52;2.05;;;15.10;67.20;;;;;;5016322;28;20033;-69
2023/06/11 03:27:41;;;;;;;8.38;2.33;;;15.10;67.40;;;;;;5009079;28;20083;-68
2023/06/11 03:30:07;;;;;;;4.80;1.85;;;15.10;67.50;;;;;;5004636;28;20382;-68
2023/06/11 03:32:33;;;;;;;5.60;1.98;;;15.10;67.70;;;;;;5009804;28;20145;-68
2023/06/11 03:34:59;;;;;;;4.13;1.75;;;15.20;67.50;;;;;;5010968;28;20162;-68
2023/06/11 03:37:25;;;;;;;5.07;1.58;;;15.10;67.70;;;;;;5006047;28;20451;-68
2023/06/11 03:39:50;;;;;;;5.80;1.77;;;15.10;67.60;;;;;;5002336;28;20441;-67
2023/06/11 03:42:16;;;;;;;6.18;2.20;;;15.10;68.20;;;;;;5013393;28;20080;-68
2023/06/11 03:44:41;;;;;;;5.47;2.00;;;15.10;68.10;;;;;;5006607;28;20037;-67
2023/06/11 03:47:07;;;;;;;5.60;1.63;;;15.20;67.90;;;;;;5012091;28;20383;-67
2023/06/11 03:49:32;;;;;;;9.80;2.05;;;15.00;68.40;;;;;;5006801;28;20041;-67
2023/06/11 03:51:58;;;;;;;6.10;2.05;;;15.10;68.50;;;;;;5013315;28;20039;-69
2023/06/11 03:54:23;;;;;;;5.57;1.95;;;15.10;68.50;;;;;;5009917;28;20056;-71
2023/06/11 03:56:49;;;;;;;11.00;2.17;;;15.20;68.60;;;;;;5007234;28;20026;-68
2023/06/11 03:59:14;;;;;;;8.05;1.80;;;15.20;68.60;;;;;;5002930;28;20415;-69
2023/06/11 04:01:41;;;;;;;6.95;2.00;;;15.20;68.60;;;;;;5002280;28;20044;-70
2023/06/11 04:04:06;;;;;;;6.93;2.45;;;15.20;68.30;;;;;;5004668;28;20045;-70
2023/06/11 04:06:38;;;;;;;7.43;1.90;;;15.20;68.50;;;;;;5004568;28;20442;-69
2023/06/11 04:09:05;;;;;;;3.72;1.75;;;15.30;68.10;;;;;;5007947;28;20089;-69
2023/06/11 04:11:30;;;;;;;5.05;2.22;;;15.30;68.10;;;;;;5008885;28;20033;-68
2023/06/11 04:13:57;;;;;;;5.65;2.47;;;15.30;68.10;;;;;;5006738;28;20361;-69
2023/06/11 04:16:22;;;;;;;5.93;1.77;;;15.50;68.30;;;;;;5003826;28;20057;-69
2023/06/11 04:18:48;;;;;;;4.72;2.25;;;15.50;67.70;;;;;;5010235;28;20415;-69
2023/06/11 04:21:14;;;;;;;6.32;2.53;;;15.40;68.30;;;;;;5008139;28;20034;-69
2023/06/11 04:23:40;;;;;;;6.05;2.03;;;15.50;67.80;;;;;;5004108;28;20048;-70
2023/06/11 04:26:07;;;;;;;7.45;2.08;;;15.50;68.30;;;;;;5008649;28;20022;-69
2023/06/11 04:28:35;;;;;;;5.32;2.08;;;15.60;68.00;;;;;;5010411;28;20442;-66
2023/06/11 04:31:01;;;;;;;4.88;1.70;;;15.50;68.10;;;;;;5000740;28;20038;-66
2023/06/11 04:33:36;;;;;;;6.20;2.00;;;15.70;68.20;;;;;;5002444;28;20061;-66
2023/06/11 04:36:10;;;;;;;5.40;1.98;;;15.80;68.20;;;;;;5009767;28;20462;-66
2023/06/11 04:38:43;;;;;;;7.13;2.20;;;15.90;67.90;;;;;;4997877;28;20125;-65
2023/06/11 04:41:11;;;;;;;7.68;2.30;;;16.00;67.30;;;;;;5001708;28;20116;-65
2023/06/11 04:43:37;;;;;;;4.72;2.17;;;15.90;67.40;;;;;;5012199;28;20476;-65
2023/06/11 04:46:04;;;;;;;6.03;1.92;;;16.00;67.90;;;;;;5006612;28;20018;-65
2023/06/11 04:48:31;;;;;;;8.57;1.90;;;15.80;67.60;;;;;;5003024;28;20425;-65
2023/06/11 04:50:59;;;;;;;3.13;1.70;;;15.80;68.50;;;;;;5007294;28;20363;-65
2023/06/11 04:53:27;;;;;;;4.40;2.15;;;15.80;68.20;;;;;;5000050;28;20418;-65
2023/06/11 04:55:54;;;;;;;6.18;2.10;;;15.80;68.30;;;;;;5003207;28;20053;-65
2023/06/11 04:58:21;;;;;;;4.85;1.80;;;15.70;68.60;;;;;;5000340;28;20049;-66
2023/06/11 05:00:48;;;;;;;4.57;2.05;;;15.60;69.00;;;;;;5004269;28;20291;-65
2023/06/11 05:03:16;;;;;;;5.35;2.35;;;15.50;69.10;;;;;;5008932;28;20088;-65
2023/06/11 05:05:49;;;;;;;3.92;1.88;;;15.60;69.60;;;;;;5005189;28;20029;-66
2023/06/11 05:08:16;;;;;;;8.18;2.08;;;15.50;69.00;;;;;;5000366;28;20029;-66
2023/06/11 05:10:42;;;;;;;4.68;1.88;;;15.50;69.20;;;;;;5006475;28;20113;-65
2023/06/11 05:13:07;;;;;;;7.20;1.83;;;15.50;69.40;;;;;;5005598;28;20149;-66
2023/06/11 05:15:33;;;;;;;3.92;1.77;;;15.70;70.00;;;;;;5010341;28;20112;-65
2023/06/11 05:18:00;;;;;;;10.10;2.05;;;15.70;70.00;;;;;;5011779;28;20057;-68
2023/06/11 05:20:26;;;;;;;6.63;1.73;;;15.80;69.80;;;;;;5006005;28;20037;-67
2023/06/11 05:22:58;;;;;;;5.95;1.75;;;15.70;68.80;;;;;;5004814;28;20116;-65
2023/06/11 05:25:27;;;;;;;7.78;2.20;;;15.70;68.80;;;;;;5015819;28;20014;-65
2023/06/11 05:27:53;;;;;;;7.07;2.00;;;15.80;69.10;;;;;;5009589;28;20100;-65
2023/06/11 05:30:24;;;;;;;6.78;2.53;;;15.80;68.40;;;;;;5005690;28;20479;-65
2023/06/11 05:32:50;;;;;;;7.68;2.15;;;15.90;69.00;;;;;;5002094;28;20042;-65
2023/06/11 05:35:15;;;;;;;6.38;2.28;;;16.00;68.40;;;;;;5008643;28;20081;-66
2023/06/11 05:37:41;;;;;;;6.28;1.95;;;16.10;68.70;;;;;;5003134;28;20094;-65
2023/06/11 05:40:07;;;;;;;6.47;2.20;;;16.10;68.70;;;;;;4996879;28;20156;-65
2023/06/11 05:42:33;;;;;;;7.47;2.35;;;16.20;69.00;;;;;;5014923;28;20017;-68
2023/06/11 05:44:58;;;;;;;6.72;2.15;;;16.20;67.90;;;;;;5005360;28;20520;-66
2023/06/11 05:47:24;;;;;;;9.40;2.35;;;16.30;68.20;;;;;;5004895;28;20042;-65
2023/06/11 05:49:49;;;;;;;6.85;2.40;;;16.40;68.00;;;;;;5010405;28;20041;-66
2023/06/11 05:52:14;;;;;;;6.38;2.20;;;16.60;67.50;;;;;;5006380;28;20376;-66
2023/06/11 05:54:40;;;;;;;5.00;2.08;;;16.60;67.50;;;;;;5006659;28;20030;-65
2023/06/11 05:57:10;;;;;;;6.78;2.20;;;16.80;67.20;;;;;;5009917;28;20096;-67
2023/06/11 05:59:36;;;;;;;6.00;2.30;;;16.90;67.70;;;;;;5011196;28;20076;-66
2023/06/11 06:02:01;;;;;;;6.50;2.15;;;17.00;67.00;;;;;;5005132;28;20034;-66
2023/06/11 06:04:27;;;;;;;8.38;2.17;;;17.10;67.20;;;;;;5007711;28;20377;-66
2023/06/11 06:06:52;;;;;;;6.78;2.53;;;17.30;67.70;;;;;;5007770;28;20026;-67
2023/06/11 06:09:18;;;;;;;5.47;2.35;;;17.20;66.00;;;;;;5004020;28;20434;-66
2023/06/11 06:11:43;;;;;;;5.95;2.40;;;17.20;64.80;;;;;;5011889;28;20036;-66
2023/06/11 06:14:08;;;;;;;5.47;2.30;;;17.30;65.20;;;;;;5008583;28;20609;-66
2023/06/11 06:16:34;;;;;;;4.13;2.10;;;17.50;64.70;;;;;;5007522;28;20038;-66
2023/06/11 06:18:59;;;;;;;4.35;1.90;;;17.60;64.10;;;;;;5007240;28;20065;-65
2023/06/11 06:21:25;;;;;;;5.38;2.17;;;17.80;64.10;;;;;;5008682;28;20045;-66
2023/06/11 06:23:51;;;;;;;4.75;2.15;;;18.00;64.70;;;;;;5003386;28;20025;-65
2023/06/11 06:26:17;;;;;;;6.85;2.30;;;18.20;63.80;;;;;;5019134;28;20052;-66
2023/06/11 06:28:43;;;;;;;4.78;2.40;;;18.40;63.80;;;;;;5007636;28;20048;-66
2023/06/11 06:31:12;;;;;;;5.13;2.00;;;18.50;62.80;;;;;;5001854;28;20148;-66
2023/06/11 06:33:38;;;;;;;6.53;2.35;;;18.80;63.00;;;;;;5009928;28;20401;-65
2023/06/11 06:36:04;;;;;;;6.82;2.33;;;18.70;61.50;;;;;;5014102;28;20035;-66
2023/06/11 06:38:31;;;;;;;5.60;2.58;;;18.90;62.40;;;;;;5001094;28;20419;-65
2023/06/11 06:40:56;;;;;;;3.65;2.33;;;18.90;60.50;;;;;;5006294;28;20030;-65
2023/06/11 06:43:22;;;;;;;7.85;2.13;;;19.10;61.70;;;;;;5017707;28;20044;-66
2023/06/11 06:45:47;;;;;;;7.20;2.33;;;19.50;61.30;;;;;;5008333;28;20061;-66
2023/06/11 06:48:13;;;;;;;6.80;2.47;;;19.60;60.60;;;;;;5004667;28;20053;-65
2023/06/11 06:50:38;;;;;;;6.40;2.50;;;19.70;59.90;;;;;;5003163;28;20038;-68
2023/06/11 06:53:04;;;;;;;8.07;2.38;;;19.70;59.50;;;;;;4999959;28;20041;-66
2023/06/11 06:55:29;;;;;;;5.80;2.20;;;19.60;58.30;;;;;;5008377;28;20029;-67
2023/06/11 06:57:54;;;;;;;8.40;2.38;;;19.80;57.80;;;;;;5006423;28;20133;-67
2023/06/11 07:00:20;;;;;;;6.10;2.42;;;20.00;59.40;;;;;;5012910;28;20037;-63
2023/06/11 07:02:45;;;;;;;5.45;2.33;;;19.80;58.00;;;;;;5006934;28;20315;-67
2023/06/11 07:05:12;;;;;;;5.53;2.13;;;19.70;57.90;;;;;;5006203;28;20125;-65
2023/06/11 07:07:38;;;;;;;4.75;2.70;;;20.00;58.10;;;;;;5006523;28;20041;-66
2023/06/11 07:10:03;;;;;;;5.70;2.45;;;19.90;57.70;;;;;;5003652;28;20030;-65
2023/06/11 07:12:29;;;;;;;5.25;2.65;;;20.00;57.90;;;;;;5006292;28;20403;-66
2023/06/11 07:14:54;;;;;;;7.97;3.10;;;20.40;56.90;;;;;;5001617;28;20052;-65
2023/06/11 07:17:21;;;;;;;6.40;2.50;;;20.40;58.00;;;;;;5006286;28;20026;-65
2023/06/11 07:19:47;;;;;;;6.43;2.65;;;20.70;57.00;;;;;;5005826;28;20369;-65
2023/06/11 07:22:12;;;;;;;4.32;2.35;;;21.00;55.60;;;;;;5005165;28;20094;-64
2023/06/11 07:24:42;;;;;;;7.72;2.40;;;21.30;55.80;;;;;;4997796;28;20088;-67
2023/06/11 07:27:08;;;;;;;8.10;2.50;;;21.50;54.70;;;;;;5010716;28;20030;-65
2023/06/11 07:29:33;;;;;;;9.45;2.40;;;21.90;57.60;;;;;;5003924;28;20026;-65
2023/06/11 07:31:59;;;;;;;7.00;2.58;;;22.40;55.60;;;;;;4994190;28;20355;-66
2023/06/11 07:34:24;;;;;;;7.55;2.63;;;22.00;52.50;;;;;;5001438;28;20369;-65
2023/06/11 07:36:52;;;;;;;4.35;2.55;;;22.40;53.20;;;;;;4996704;28;20034;-67
2023/06/11 07:39:18;;;;;;;5.93;2.70;;;22.20;50.00;;;;;;4986760;28;20038;-65
2023/06/11 07:41:43;;;;;;;10.95;2.72;;;22.60;52.00;;;;;;5008099;28;20040;-66
2023/06/11 07:44:09;;;;;;;9.52;2.78;;;22.50;49.00;;;;;;5006720;28;20119;-64
2023/06/11 07:46:34;;;;;;;5.80;2.78;;;22.70;50.00;;;;;;5006080;28;20327;-65
2023/06/11 07:49:00;;;;;;;4.38;2.47;;;22.70;49.40;;;;;;5009712;28;20029;-65
2023/06/11 07:51:25;;;;;;;6.35;2.95;;;23.40;50.80;;;;;;5002280;28;20049;-66
2023/06/11 07:53:51;;;;;;;5.60;2.78;;;23.20;46.60;;;;;;5002909;28;20044;-68
2023/06/11 07:56:16;;;;;;;5.38;2.78;;;23.50;46.60;;;;;;5005368;28;20458;-66
2023/06/11 07:58:42;;;;;;;8.85;3.00;;;23.50;47.30;;;;;;5005879;28;20037;-65
2023/06/11 08:01:08;;;;;;;6.55;3.00;;;23.80;46.70;;;;;;5007887;28;20042;-66
2023/06/11 08:03:33;;;;;;;6.40;2.70;;;24.10;48.10;;;;;;5000744;28;20080;-66
2023/06/11 08:05:59;;;;;;;8.40;2.90;;;24.30;46.10;;;;;;5008109;28;20525;-66
2023/06/11 08:08:24;;;;;;;6.50;2.95;;;24.60;46.10;;;;;;5007303;28;20049;-66
2023/06/11 08:10:50;;;;;;;6.32;2.75;;;25.00;47.00;;;;;;5009703;28;20038;-67
2023/06/11 08:13:16;;;;;;;9.57;2.50;;;25.20;45.40;;;;;;5007255;28;20034;-65
2023/06/11 08:15:41;;;;;;;4.45;2.88;;;25.50;45.60;;;;;;5006611;28;20057;-64
2023/06/11 08:18:07;;;;;;;6.07;2.63;;;25.40;41.80;;;;;;5010957;28;20108;-64
2023/06/11 08:20:33;;;;;;;7.05;2.67;;;25.50;43.30;;;;;;5011419;28;20477;-64
2023/06/11 08:22:58;;;;;;;5.72;2.50;;;25.50;43.60;;;;;;5000684;28;20026;-64
2023/06/11 08:25:24;;;;;;;6.50;2.80;;;25.90;44.00;;;;;;5004048;28;20042;-63
2023/06/11 08:27:50;;;;;;;6.05;2.60;;;25.50;41.70;;;;;;5004507;28;20469;-68
2023/06/11 08:30:16;;;;;;;6.82;2.95;;;26.10;41.50;;;;;;5007009;28;20030;-68
2023/06/11 08:32:41;;;;;;;6.43;2.72;;;26.30;42.50;;;;;;5009401;28;20385;-71
2023/06/11 08:35:07;;;;;;;6.35;2.80;;;26.40;40.80;;;;;;5006252;28;20049;-69
2023/06/11 08:37:33;;;;;;;4.05;2.47;;;26.50;40.50;;;;;;5004725;28;20057;-68
2023/06/11 08:39:58;;;;;;;7.70;3.15;;;26.50;41.60;;;;;;5011719;28;20060;-68
2023/06/11 08:42:24;;;;;;;4.60;2.70;;;26.50;39.80;;;;;;5002562;28;20047;-69
2023/06/11 08:44:50;;;;;;;7.40;3.10;;;26.50;38.40;;;;;;4997975;28;20022;-67
2023/06/11 08:47:16;;;;;;;6.80;2.67;;;26.70;40.20;;;;;;5006467;28;20062;-70
2023/06/11 08:49:44;;;;;;;8.40;2.28;;;27.00;42.20;;;;;;5004605;28;20324;-67
2023/06/11 08:52:12;;;;;;;8.73;2.90;;;27.40;40.90;;;;;;5012296;28;20532;-68
2023/06/11 08:54:37;;;;;;;8.35;3.03;;;27.30;39.10;;;;;;4995415;28;20026;-67
2023/06/11 08:57:04;;;;;;;5.85;2.60;;;27.30;39.70;;;;;;4998479;28;20171;-67
2023/06/11 08:59:30;;;;;;;7.50;2.60;;;27.70;37.50;;;;;;5004014;28;20042;-69
2023/06/11 09:01:55;;;;;;;5.50;2.55;;;27.20;34.90;;;;;;4997265;28;20104;-69
2023/06/11 09:04:21;;;;;;;5.82;2.58;;;27.20;37.30;;;;;;4997977;28;20418;-68
2023/06/11 09:06:58;;;;;;;6.57;2.58;;;27.20;37.00;;;;;;5003264;28;20326;-69
2023/06/11 09:09:24;;;;;;;6.32;2.50;;;27.70;37.10;;;;;;4996406;28;20018;-68
2023/06/11 09:11:49;;;;;;;4.68;2.53;;;27.90;36.30;;;;;;4996794;28;20112;-68
2023/06/11 09:14:15;;;;;;;7.45;2.40;;;27.90;36.10;;;;;;5002366;28;20037;-68
2023/06/11 09:16:44;;;;;;;11.13;2.42;;;27.90;33.40;;;;;;5004609;28;20053;-68
2023/06/11 09:19:14;;;;;;;5.15;2.25;;;28.10;36.20;;;;;;5003461;28;21445;-67
2023/06/11 09:21:55;;;;;;;5.35;2.75;;;28.00;34.30;;;;;;5022269;28;20022;-80
2023/06/11 09:24:21;;;;;;;6.80;2.88;;;28.40;34.20;;;;;;5007688;28;20120;-68
2023/06/11 09:26:53;;;;;;;3.55;2.00;;;28.30;35.00;;;;;;5012008;28;20029;-68
2023/06/11 09:29:20;;;;;;;3.85;2.53;;;28.60;36.90;;;;;;5008842;28;20046;-69
2023/06/11 09:31:45;;;;;;;8.07;2.25;;;28.50;32.70;;;;;;5008512;28;20489;-71
2023/06/11 09:34:16;;;;;;;6.80;2.40;;;29.10;35.60;;;;;;4998593;28;20062;-68
2023/06/11 09:36:45;;;;;;;7.80;2.45;;;29.10;32.20;;;;;;5008420;28;20022;-69
2023/06/11 09:39:13;;;;;;;7.93;2.97;;;29.10;34.60;;;;;;5001756;28;20040;-68
2023/06/11 09:41:47;;;;;;;6.63;2.63;;;28.90;32.00;;;;;;5006750;28;20105;-68
2023/06/11 09:44:12;;;;;;;4.70;2.47;;;29.30;33.80;;;;;;5015902;28;20444;-68
2023/06/11 09:46:38;;;;;;;6.53;2.38;;;29.50;34.70;;;;;;5008069;28;20038;-69
2023/06/11 09:49:05;;;;;;;6.05;2.33;;;29.20;33.10;;;;;;5004369;28;20423;-69
2023/06/11 09:51:31;;;;;;;5.25;2.50;;;29.20;32.50;;;;;;5003739;28;20477;-68
2023/06/11 09:53:58;;;;;;;5.25;2.17;;;29.00;33.20;;;;;;5003435;28;20048;-70
2023/06/11 09:56:23;;;;;;;3.60;2.38;;;29.30;33.80;;;;;;4999341;28;20030;-71
2023/06/11 09:58:50;;;;;;;6.82;2.38;;;29.10;32.50;;;;;;5005567;28;20464;-70
2023/06/11 10:01:16;;;;;;;4.35;2.33;;;29.30;32.00;;;;;;4992281;28;20431;-69
2023/06/11 10:03:42;;;;;;;3.78;2.13;;;29.50;30.50;;;;;;4993442;28;20033;-69
2023/06/11 10:06:15;;;;;;;6.10;2.60;;;29.50;30.50;;;;;;5000983;28;20045;-69
2023/06/11 10:08:41;;;;;;;5.82;2.22;;;29.60;32.40;;;;;;5000174;28;20029;-69
2023/06/11 10:11:08;;;;;;;6.60;2.30;;;29.40;30.80;;;;;;4998595;28;20402;-69
2023/06/11 10:13:34;;;;;;;5.38;2.63;;;29.10;30.70;;;;;;5005707;28;20040;-69
2023/06/11 10:16:07;;;;;;;4.38;2.50;;;29.70;32.10;;;;;;5010429;28;20029;-68
2023/06/11 10:18:32;;;;;;;3.63;2.20;;;29.80;29.80;;;;;;5001574;28;20033;-69
2023/06/11 10:21:03;;;;;;;7.18;2.40;;;30.40;32.60;;;;;;5002577;28;20038;-69
2023/06/11 10:23:41;;;;;;;6.03;2.45;;;30.50;32.80;;;;;;4999301;28;20025;-69
2023/06/11 10:26:11;;;;;;;8.35;2.53;;;31.00;30.10;;;;;;5009382;28;20052;-69
2023/06/11 10:28:48;;;;;;;6.53;2.63;;;31.00;29.80;;;;;;5001210;28;20071;-70
2023/06/11 10:31:27;;;;;;;3.40;2.38;;;30.80;28.30;;;;;;5005850;28;20040;-69
2023/06/11 10:34:00;;;;;;;4.90;2.55;;;30.90;28.00;;;;;;5017700;28;20391;-70
2023/06/11 10:36:26;;;;;;;8.60;2.83;;;31.10;28.40;;;;;;5005349;28;20074;-70
2023/06/11 10:39:10;;;;;;;7.97;2.47;;;31.10;29.60;;;;;;5003147;28;20049;-70
2023/06/11 10:41:42;;;;;;;3.67;2.33;;;30.80;30.70;;;;;;5009902;28;20430;-70
2023/06/11 10:44:10;;;;;;;4.45;2.20;;;30.80;27.00;;;;;;5007692;28;20038;-69
2023/06/11 10:46:52;;;;;;;6.03;2.30;;;30.90;29.10;;;;;;5023084;28;20057;-69
2023/06/11 10:49:22;;;;;;;5.03;2.20;;;31.00;29.00;;;;;;5001875;28;20106;-71
2023/06/11 10:51:49;;;;;;;3.20;2.00;;;31.20;27.70;;;;;;4996304;28;20068;-71
2023/06/11 10:54:32;;;;;;;3.88;2.20;;;30.90;26.50;;;;;;5005956;28;21219;-70
2023/06/11 10:57:00;;;;;;;4.65;2.00;;;31.50;29.30;;;;;;4998212;28;20030;-69
2023/06/11 10:59:26;;;;;;;4.68;2.00;;;31.40;29.20;;;;;;5003951;28;20030;-72
2023/06/11 11:01:55;;;;;;;5.05;2.35;;;31.40;27.80;;;;;;4998898;28;20038;-70
2023/06/11 11:04:23;;;;;;;5.43;2.30;;;31.60;29.20;;;;;;5006235;28;20037;-70
2023/06/11 11:07:03;;;;;;;4.45;2.30;;;32.00;28.80;;;;;;5011538;28;20022;-70
2023/06/11 11:09:29;;;;;;;4.28;2.25;;;31.90;30.50;;;;;;5005446;28;20481;-69
2023/06/11 11:11:58;;;;;;;8.95;2.45;;;31.90;29.30;;;;;;5012119;28;20156;-69
2023/06/11 11:14:24;;;;;;;6.13;2.58;;;31.70;28.50;;;;;;5008526;28;20034;-69
2023/06/11 11:16:50;;;;;;;4.75;2.30;;;32.10;29.30;;;;;;5000817;28;20030;-71
2023/06/11 11:19:22;;;;;;;3.58;2.42;;;32.30;28.50;;;;;;5006227;28;20323;-70
2023/06/11 11:21:51;;;;;;;3.83;2.25;;;32.10;28.30;;;;;;4998758;28;20067;-70
2023/06/11 11:24:17;;;;;;;4.30;2.28;;;32.00;30.80;;;;;;5006157;28;20435;-68
2023/06/11 11:26:44;;;;;;;6.15;2.10;;;30.90;28.80;;;;;;5001150;28;20061;-70
2023/06/11 11:29:09;;;;;;;5.47;2.53;;;31.70;29.20;;;;;;4999391;28;20015;-80
2023/06/11 11:31:36;;;;;;;3.40;2.05;;;31.80;29.10;;;;;;5001917;28;20059;-68
2023/06/11 11:34:01;;;;;;;8.52;2.38;;;32.40;30.60;;;;;;5005096;28;20128;-69
2023/06/11 11:36:27;;;;;;;4.78;2.33;;;32.50;29.20;;;;;;4994220;28;20148;-69
2023/06/11 11:38:53;;;;;;;7.50;2.35;;;32.20;30.40;;;;;;4999639;28;20167;-69
2023/06/11 11:41:22;;;;;;;5.93;2.35;;;32.50;28.40;;;;;;4997674;28;20422;-73
2023/06/11 11:43:49;;;;;;;5.20;2.28;;;33.20;29.40;;;;;;5004716;28;20030;-70
2023/06/11 11:46:16;;;;;;;8.02;2.20;;;33.80;28.40;;;;;;4999895;28;20102;-69
2023/06/11 11:48:42;;;;;;;4.75;2.08;;;33.40;28.00;;;;;;4995671;28;20072;-69
2023/06/11 11:51:08;;;;;;;6.88;2.00;;;33.40;26.20;;;;;;5000982;28;20112;-71
2023/06/11 11:53:34;;;;;;;3.30;2.08;;;34.10;26.70;;;;;;4997989;28;20430;-70
2023/06/11 11:55:59;;;;;;;5.10;2.33;;;34.20;25.70;;;;;;5001543;28;20022;-74
2023/06/11 11:58:25;;;;;;;5.18;2.00;;;34.40;24.70;;;;;;4999398;28;20104;-71
2023/06/11 12:00:52;;;;;;;3.90;2.20;;;34.60;25.60;;;;;;4997115;28;20107;-70
2023/06/11 12:03:22;;;;;;;3.63;2.22;;;34.70;26.90;;;;;;5004104;28;20034;-70
2023/06/11 12:06:02;;;;;;;6.25;2.25;;;35.10;27.30;;;;;;4997204;28;20097;-70
2023/06/11 12:08:30;;;;;;;5.32;2.30;;;34.70;24.80;;;;;;4996652;28;20439;-70
2023/06/11 12:10:56;;;;;;;4.40;2.20;;;34.80;25.00;;;;;;5005670;28;20343;-71
2023/06/11 12:13:22;;;;;;;3.22;1.73;;;34.70;25.00;;;;;;5003765;28;20049;-72
2023/06/11 12:15:48;;;;;;;3.85;1.98;;;34.50;25.40;;;;;;4999960;28;20366;-70
2023/06/11 12:18:13;;;;;;;3.45;1.70;;;35.00;24.20;;;;;;5003788;28;20038;-70
2023/06/11 12:20:39;;;;;;;4.68;2.20;;;35.30;23.60;;;;;;4997169;28;20061;-69
2023/06/11 12:23:04;;;;;;;6.25;2.20;;;34.60;22.30;;;;;;5009956;28;20041;-71
2023/06/11 12:25:31;;;;;;;6.85;2.03;;;34.70;23.00;;;;;;5000176;28;20026;-68
2023/06/11 12:27:57;;;;;;;3.88;1.98;;;35.10;24.30;;;;;;5011798;28;20057;-69
2023/06/11 12:30:23;;;;;;;4.03;2.10;;;35.30;24.80;;;;;;5010432;28;20442;-68
2023/06/11 12:32:48;;;;;;;6.95;2.40;;;34.80;22.90;;;;;;5010707;28;20034;-69
2023/06/11 12:35:14;;;;;;;6.75;2.25;;;35.10;24.40;;;;;;5018492;28;20050;-70
2023/06/11 12:37:40;;;;;;;4.13;2.03;;;34.90;24.20;;;;;;5005866;28;20045;-68
2023/06/11 12:40:06;;;;;;;4.25;1.90;;;35.70;24.40;;;;;;5006642;28;20037;-73
2023/06/11 12:42:33;;;;;;;4.47;2.38;;;35.60;21.80;;;;;;5018040;28;20100;-71
2023/06/11 12:44:59;;;;;;;3.40;2.17;;;35.50;24.80;;;;;;5011922;28;20101;-69